Time;durP1;ratioP1;P1;durP2;ratioP2;P2;SDS_P1;SDS_P2;PMS_P1;PMS_P2;Temp;Humidity;BMP_temperature;BMP_pressure;BME280_temperature;BME280_humidity;BME280_pressure;Samples;Min_cycle;Max_cycle;Signal;HPM_P1;HPM_P2
2022/08/07 00:00:41;;;;;;;;;;;26.20;51.90;;;;;;5044337;28;87956;-46
2022/08/07 00:03:07;;;;;;;;;;;26.10;51.90;;;;;;5045271;28;86350;-46
2022/08/07 00:05:33;;;;;;;;;;;26.10;51.90;;;;;;5047627;27;87925;-45
2022/08/07 00:07:58;;;;;;;;;;;26.10;52.00;;;;;;5045221;28;86983;-46
2022/08/07 00:10:24;;;;;;;;;;;26.10;52.00;;;;;;5044130;28;87934;-45
2022/08/07 00:12:49;;;;;;;;;;;26.10;52.00;;;;;;5044755;28;88282;-45
2022/08/07 00:15:15;;;;;;;;;;;26.10;52.00;;;;;;5045120;28;87133;-45
2022/08/07 00:17:41;;;;;;;;;;;26.10;52.10;;;;;;5045140;28;87621;-46
2022/08/07 00:20:06;;;;;;;;;;;26.00;51.90;;;;;;5044869;28;87100;-46
2022/08/07 00:22:32;;;;;;;;;;;26.00;51.90;;;;;;5044781;28;87109;-46
2022/08/07 00:24:57;;;;;;;;;;;26.00;51.90;;;;;;5047650;27;87416;-46
2022/08/07 00:27:23;;;;;;;;;;;26.00;52.00;;;;;;5045094;27;86379;-45
2022/08/07 00:29:49;;;;;;;;;;;26.00;52.00;;;;;;5044509;28;87085;-45
2022/08/07 00:32:15;;;;;;;;;;;26.00;52.00;;;;;;5044345;28;88341;-45
2022/08/07 00:34:41;;;;;;;;;;;26.00;52.10;;;;;;5044203;28;88143;-46
2022/08/07 00:37:07;;;;;;;;;;;26.00;52.10;;;;;;5044684;28;88504;-45
2022/08/07 00:39:33;;;;;;;;;;;26.00;52.00;;;;;;5044477;28;87231;-45
2022/08/07 00:41:58;;;;;;;;;;;25.90;52.00;;;;;;5044526;28;87288;-45
2022/08/07 00:44:24;;;;;;;;;;;25.90;52.00;;;;;;5044786;27;87079;-44
2022/08/07 00:46:49;;;;;;;;;;;25.90;52.00;;;;;;5047094;28;88005;-46
2022/08/07 00:49:15;;;;;;;;;;;25.90;52.00;;;;;;5044509;28;87829;-46
2022/08/07 00:51:41;;;;;;;;;;;25.90;52.60;;;;;;5044751;28;87271;-47
2022/08/07 00:54:06;;;;;;;;;;;25.90;52.10;;;;;;5044370;28;87153;-45
2022/08/07 00:56:32;;;;;;;;;;;25.80;51.90;;;;;;5044397;28;87418;-45
2022/08/07 00:58:58;;;;;;;;;;;25.90;52.00;;;;;;5043421;28;88932;-45
2022/08/07 01:01:24;;;;;;;;;;;25.80;52.00;;;;;;5043920;28;87098;-45
2022/08/07 01:03:53;;;;;;;;;;;25.80;52.00;;;;;;5044312;28;88047;-45
2022/08/07 01:06:18;;;;;;;;;;;25.80;52.10;;;;;;5043920;28;87956;-45
2022/08/07 01:08:44;;;;;;;;;;;25.80;52.10;;;;;;5047319;28;87115;-45
2022/08/07 01:11:11;;;;;;;;;;;25.80;52.10;;;;;;5043662;28;88249;-45
2022/08/07 01:13:37;;;;;;;;;;;25.70;52.00;;;;;;5044139;28;87078;-45
2022/08/07 01:16:04;;;;;;;;;;;25.70;52.10;;;;;;5044672;27;87458;-46
2022/08/07 01:18:29;;;;;;;;;;;25.70;52.10;;;;;;5043746;28;89415;-45
2022/08/07 01:21:10;;;;;;;;;;;25.70;52.10;;;;;;5044134;28;87038;-45
2022/08/07 01:23:36;;;;;;;;;;;25.70;52.10;;;;;;5043640;28;87822;-46
2022/08/07 01:26:02;;;;;;;;;;;25.70;52.10;;;;;;5043639;28;87113;-45
2022/08/07 01:28:28;;;;;;;;;;;25.70;52.00;;;;;;5044032;28;86968;-45
2022/08/07 01:30:54;;;;;;;;;;;25.70;52.10;;;;;;5046493;28;87401;-46
2022/08/07 01:33:20;;;;;;;;;;;25.60;52.10;;;;;;5043894;28;87051;-45
2022/08/07 01:35:45;;;;;;;;;;;25.60;52.00;;;;;;5044134;27;87132;-45
2022/08/07 01:38:11;;;;;;;;;;;25.60;52.70;;;;;;5043577;28;88014;-45
2022/08/07 01:40:37;;;;;;;;;;;25.60;52.10;;;;;;5043470;28;86257;-45
2022/08/07 01:43:02;;;;;;;;;;;25.60;52.10;;;;;;5043875;28;87100;-46
2022/08/07 01:45:28;;;;;;;;;;;25.60;52.10;;;;;;5043061;28;89739;-45
2022/08/07 01:47:53;;;;;;;;;;;25.60;52.10;;;;;;5043183;28;88005;-45
2022/08/07 01:50:19;;;;;;;;;;;25.50;52.10;;;;;;5043743;28;88366;-45
2022/08/07 01:52:46;;;;;;;;;;;25.50;52.10;;;;;;5046318;28;87548;-45
2022/08/07 01:55:12;;;;;;;;;;;25.50;52.20;;;;;;5043348;28;86922;-46
2022/08/07 01:57:40;;;;;;;;;;;25.50;52.10;;;;;;5043292;28;87108;-45
2022/08/07 02:00:07;;;;;;;;;;;25.50;52.10;;;;;;5042733;28;87471;-45
2022/08/07 02:02:49;;;;;;;;;;;25.50;52.20;;;;;;5043454;27;87423;-45
2022/08/07 02:05:16;;;;;;;;;;;25.50;52.10;;;;;;5043635;28;87277;-45
2022/08/07 02:07:45;;;;;;;;;;;25.50;52.20;;;;;;5043484;28;87640;-44
2022/08/07 02:10:11;;;;;;;;;;;25.40;52.60;;;;;;5043138;27;87351;-45
2022/08/07 02:12:38;;;;;;;;;;;25.40;52.20;;;;;;5041960;28;90212;-45
2022/08/07 02:15:04;;;;;;;;;;;25.40;52.20;;;;;;5046062;28;86948;-45
2022/08/07 02:17:30;;;;;;;;;;;25.40;52.20;;;;;;5042666;28;89267;-45
2022/08/07 02:19:58;;;;;;;;;;;25.40;52.20;;;;;;5043192;28;87367;-45
2022/08/07 02:22:24;;;;;;;;;;;25.40;52.30;;;;;;5043119;27;87431;-45
2022/08/07 02:24:51;;;;;;;;;;;25.30;52.20;;;;;;5042858;28;88198;-45
2022/08/07 02:27:18;;;;;;;;;;;25.30;52.20;;;;;;5043347;28;87043;-45
2022/08/07 02:29:44;;;;;;;;;;;25.30;52.20;;;;;;5043381;27;88562;-45
2022/08/07 02:32:10;;;;;;;;;;;25.30;52.30;;;;;;5042686;28;87983;-45
2022/08/07 02:34:36;;;;;;;;;;;25.30;52.40;;;;;;5045785;28;87017;-44
2022/08/07 02:37:04;;;;;;;;;;;25.30;52.30;;;;;;5041853;28;89654;-44
2022/08/07 02:39:30;;;;;;;;;;;25.20;52.90;;;;;;5042738;28;87229;-45
2022/08/07 02:41:56;;;;;;;;;;;25.20;52.30;;;;;;5042838;28;87576;-45
2022/08/07 02:44:23;;;;;;;;;;;25.20;52.30;;;;;;5042600;28;88049;-46
2022/08/07 02:46:49;;;;;;;;;;;25.20;52.30;;;;;;5042890;28;87064;-44
2022/08/07 02:49:15;;;;;;;;;;;25.20;52.40;;;;;;5042329;27;88863;-45
2022/08/07 02:51:43;;;;;;;;;;;25.20;52.40;;;;;;5042391;28;87442;-45
2022/08/07 02:54:09;;;;;;;;;;;25.20;52.40;;;;;;5043104;28;86363;-47
2022/08/07 02:56:37;;;;;;;;;;;25.20;52.50;;;;;;5045325;27;86934;-47
2022/08/07 02:59:04;;;;;;;;;;;25.20;52.60;;;;;;5042641;28;87080;-45
2022/08/07 03:01:30;;;;;;;;;;;25.20;52.60;;;;;;5041655;27;88771;-46
2022/08/07 03:03:56;;;;;;;;;;;25.20;52.60;;;;;;5041928;28;88146;-45
2022/08/07 03:06:22;;;;;;;;;;;25.10;52.50;;;;;;5042548;28;87176;-45
2022/08/07 03:08:48;;;;;;;;;;;25.10;52.60;;;;;;5042617;28;86933;-45
2022/08/07 03:11:14;;;;;;;;;;;25.10;52.60;;;;;;5042057;28;88233;-46
2022/08/07 03:13:40;;;;;;;;;;;25.10;52.70;;;;;;5042472;28;87056;-45
2022/08/07 03:16:06;;;;;;;;;;;25.10;52.70;;;;;;5042590;27;87573;-45
2022/08/07 03:18:32;;;;;;;;;;;25.10;52.70;;;;;;5045304;28;87576;-44
2022/08/07 03:20:58;;;;;;;;;;;25.10;52.80;;;;;;5042424;27;88018;-45
2022/08/07 03:23:26;;;;;;;;;;;25.00;52.70;;;;;;5042053;28;87865;-45
2022/08/07 03:25:52;;;;;;;;;;;25.00;52.80;;;;;;5041775;28;88042;-45
2022/08/07 03:28:18;;;;;;;;;;;25.00;52.80;;;;;;5042254;28;88511;-45
2022/08/07 03:30:44;;;;;;;;;;;25.00;52.90;;;;;;5042008;28;88082;-45
2022/08/07 03:33:10;;;;;;;;;;;25.00;52.90;;;;;;5042235;28;87358;-45
2022/08/07 03:35:36;;;;;;;;;;;25.00;52.90;;;;;;5041925;27;88627;-45
2022/08/07 03:38:03;;;;;;;;;;;25.00;52.90;;;;;;5041673;28;89543;-46
2022/08/07 03:40:28;;;;;;;;;;;25.00;52.90;;;;;;5045013;28;87053;-45
2022/08/07 03:42:54;;;;;;;;;;;24.90;53.00;;;;;;5042438;28;87535;-45
2022/08/07 03:45:23;;;;;;;;;;;25.00;53.10;;;;;;5042347;28;87518;-46
2022/08/07 03:47:49;;;;;;;;;;;24.90;53.00;;;;;;5041645;27;88854;-44
2022/08/07 03:50:16;;;;;;;;;;;24.90;53.10;;;;;;5041019;28;88935;-45
2022/08/07 03:52:43;;;;;;;;;;;24.90;53.10;;;;;;5041914;28;87056;-45
2022/08/07 03:55:09;;;;;;;;;;;24.80;53.10;;;;;;5041953;27;87421;-46
2022/08/07 03:57:35;;;;;;;;;;;24.90;53.20;;;;;;5041733;28;87966;-45
2022/08/07 04:00:01;;;;;;;;;;;24.90;53.20;;;;;;5041134;28;87088;-46
2022/08/07 04:02:26;;;;;;;;;;;24.80;53.20;;;;;;5044258;27;88904;-45
2022/08/07 04:04:52;;;;;;;;;;;24.80;53.20;;;;;;5045009;28;87166;-45
2022/08/07 04:07:17;;;;;;;;;;;24.80;53.20;;;;;;5044548;28;87375;-45
2022/08/07 04:09:44;;;;;;;;;;;24.80;53.20;;;;;;5044652;28;87171;-45
2022/08/07 04:12:10;;;;;;;;;;;24.80;53.30;;;;;;5045361;28;87527;-45
2022/08/07 04:14:36;;;;;;;;;;;24.80;53.30;;;;;;5044684;27;87825;-45
2022/08/07 04:17:01;;;;;;;;;;;24.80;53.30;;;;;;5044856;28;88241;-45
2022/08/07 04:19:27;;;;;;;;;;;24.80;53.40;;;;;;5044819;28;87123;-45
2022/08/07 04:21:53;;;;;;;;;;;24.80;53.50;;;;;;5047461;27;87686;-46
2022/08/07 04:24:19;;;;;;;;;;;24.80;53.50;;;;;;5045102;28;87123;-46
2022/08/07 04:26:44;;;;;;;;;;;24.80;53.40;;;;;;5044880;27;88504;-44
2022/08/07 04:29:10;;;;;;;;;;;24.80;53.50;;;;;;5044507;28;88242;-46
2022/08/07 04:31:39;;;;;;;;;;;24.80;53.50;;;;;;5044930;28;86386;-45
2022/08/07 04:34:06;;;;;;;;;;;24.70;53.50;;;;;;5044611;27;88293;-45
2022/08/07 04:36:33;;;;;;;;;;;24.70;53.50;;;;;;5044150;28;90823;-45
2022/08/07 04:38:58;;;;;;;;;;;24.70;53.60;;;;;;5043829;28;88051;-44
2022/08/07 04:41:24;;;;;;;;;;;24.70;53.50;;;;;;5044876;27;87391;-44
2022/08/07 04:43:49;;;;;;;;;;;24.70;53.60;;;;;;5047317;28;88116;-45
2022/08/07 04:46:18;;;;;;;;;;;24.70;53.60;;;;;;5044570;27;89125;-45
2022/08/07 04:48:44;;;;;;;;;;;24.70;53.70;;;;;;5044408;28;87443;-45
2022/08/07 04:51:15;;;;;;;;;;;24.70;53.70;;;;;;5044540;28;86977;-45
2022/08/07 04:53:49;;;;;;;;;;;24.60;54.30;;;;;;5044599;28;87455;-45
2022/08/07 04:56:34;;;;;;;;;;;24.60;53.70;;;;;;5044837;28;87269;-45
2022/08/07 04:59:03;;;;;;;;;;;24.60;53.70;;;;;;5044733;27;87083;-45
2022/08/07 05:01:41;;;;;;;;;;;24.60;53.70;;;;;;5043976;28;87536;-45
2022/08/07 05:04:13;;;;;;;;;;;24.60;53.80;;;;;;5043117;28;89401;-45
2022/08/07 05:06:52;;;;;;;;;;;24.60;53.80;;;;;;5047265;28;87071;-45
2022/08/07 05:09:30;;;;;;;;;;;24.60;54.40;;;;;;5043683;28;87908;-46
2022/08/07 05:11:58;;;;;;;;;;;24.60;53.80;;;;;;5044231;28;87095;-45
2022/08/07 05:14:38;;;;;;;;;;;24.60;53.80;;;;;;5043263;27;87515;-45
2022/08/07 05:17:04;;;;;;;;;;;24.60;53.90;;;;;;5044026;28;87935;-45
2022/08/07 05:19:33;;;;;;;;;;;24.60;53.90;;;;;;5044360;28;86988;-45
2022/08/07 05:21:59;;;;;;;;;;;24.60;54.00;;;;;;5044312;27;87359;-45
2022/08/07 05:24:25;;;;;;;;;;;24.60;54.00;;;;;;5043822;28;88044;-45
2022/08/07 05:26:52;;;;;;;;;;;24.60;53.90;;;;;;5042428;28;87092;-45
2022/08/07 05:29:18;;;;;;;;;;;24.60;53.90;;;;;;5045849;27;88072;-46
2022/08/07 05:31:45;;;;;;;;;;;24.60;53.90;;;;;;5043898;28;87031;-45
2022/08/07 05:34:12;;;;;;;;;;;24.60;53.90;;;;;;5043869;28;86982;-45
2022/08/07 05:36:41;;;;;;;;;;;24.60;53.90;;;;;;5043327;28;88078;-46
2022/08/07 05:39:06;;;;;;;;;;;24.60;54.00;;;;;;5043732;28;87074;-45
2022/08/07 05:41:32;;;;;;;;;;;24.60;54.00;;;;;;5044180;28;87406;-45
2022/08/07 05:43:58;;;;;;;;;;;24.60;54.00;;;;;;5043514;28;88549;-45
2022/08/07 05:46:23;;;;;;;;;;;24.60;54.00;;;;;;5044359;28;86254;-45
2022/08/07 05:48:50;;;;;;;;;;;24.60;54.10;;;;;;5043839;27;86977;-45
2022/08/07 05:51:15;;;;;;;;;;;24.60;54.10;;;;;;5045879;28;87006;-45
2022/08/07 05:53:41;;;;;;;;;;;24.60;54.00;;;;;;5043088;28;87995;-45
2022/08/07 05:56:10;;;;;;;;;;;24.60;54.20;;;;;;5043310;28;88398;-45
2022/08/07 05:58:37;;;;;;;;;;;24.60;54.20;;;;;;5043501;28;86971;-45
2022/08/07 06:01:04;;;;;;;;;;;24.60;54.20;;;;;;5043168;27;87857;-45
2022/08/07 06:03:30;;;;;;;;;;;24.60;54.20;;;;;;5043271;28;86979;-45
2022/08/07 06:05:56;;;;;;;;;;;24.60;54.30;;;;;;5042988;28;87084;-45
2022/08/07 06:08:22;;;;;;;;;;;24.70;54.50;;;;;;5043254;27;87058;-44
2022/08/07 06:10:47;;;;;;;;;;;24.60;54.40;;;;;;5043447;28;87270;-48
2022/08/07 06:13:13;;;;;;;;;;;24.70;54.50;;;;;;5046098;28;87090;-44
2022/08/07 06:15:40;;;;;;;;;;;24.70;54.50;;;;;;5042868;28;88138;-45
2022/08/07 06:18:05;;;;;;;;;;;24.70;54.50;;;;;;5042556;28;88042;-46
2022/08/07 06:20:34;;;;;;;;;;;24.70;54.50;;;;;;5043108;28;88429;-45
2022/08/07 06:23:01;;;;;;;;;;;24.70;54.50;;;;;;5042660;28;88197;-45
2022/08/07 06:25:26;;;;;;;;;;;24.70;54.70;;;;;;5042874;28;87024;-44
2022/08/07 06:28:00;;;;;;;;;;;24.80;54.70;;;;;;5042911;28;87618;-44
2022/08/07 06:30:25;;;;;;;;;;;24.80;54.70;;;;;;5042601;28;88147;-45
2022/08/07 06:32:51;;;;;;;;;;;24.70;54.80;;;;;;5045917;28;87103;-45
2022/08/07 06:35:16;;;;;;;;;;;24.80;54.90;;;;;;5042899;28;87390;-45
2022/08/07 06:37:42;;;;;;;;;;;24.80;54.90;;;;;;5042892;28;87115;-45
2022/08/07 06:40:07;;;;;;;;;;;24.80;54.80;;;;;;5042602;27;88864;-46
2022/08/07 06:42:36;;;;;;;;;;;24.80;54.90;;;;;;5042121;28;88240;-45
2022/08/07 06:45:03;;;;;;;;;;;24.70;55.00;;;;;;5042890;28;87135;-45
2022/08/07 06:47:28;;;;;;;;;;;24.80;55.00;;;;;;5042522;28;88969;-46
2022/08/07 06:49:55;;;;;;;;;;;24.80;55.00;;;;;;5042085;28;87647;-46
2022/08/07 06:52:21;;;;;;;;;;;24.80;54.90;;;;;;5042638;28;87086;-44
2022/08/07 06:54:48;;;;;;;;;;;24.80;55.10;;;;;;5045469;27;87406;-45
2022/08/07 06:57:14;;;;;;;;;;;24.80;55.00;;;;;;5042297;28;87162;-46
2022/08/07 06:59:40;;;;;;;;;;;24.80;55.10;;;;;;5043229;28;87377;-45
2022/08/07 07:02:07;;;;;;;;;;;24.80;55.00;;;;;;5042068;28;87997;-46
2022/08/07 07:04:32;;;;;;;;;;;24.80;55.10;;;;;;5042330;28;87175;-45
2022/08/07 07:06:59;;;;;;;;;;;24.80;55.20;;;;;;5041707;27;88014;-45
2022/08/07 07:09:26;;;;;;;;;;;24.80;55.10;;;;;;5041803;28;88231;-45
2022/08/07 07:12:07;;;;;;;;;;;24.80;55.20;;;;;;5041997;28;87048;-44
2022/08/07 07:14:58;;;;;;;;;;;24.80;55.10;;;;;;5042438;28;87989;-45
2022/08/07 07:17:31;;;;;;;;;;;24.80;55.20;;;;;;5027472;28;88044;-44
2022/08/07 07:19:58;;;;;;;;;;;24.80;55.30;;;;;;5042303;27;87427;-44
2022/08/07 07:22:24;;;;;;;;;;;24.80;55.20;;;;;;5041485;28;89438;-45
2022/08/07 07:24:50;;;;;;;;;;;24.80;55.10;;;;;;5042530;28;86451;-45
2022/08/07 07:27:16;;;;;;;;;;;24.80;55.20;;;;;;5042191;28;86976;-45
2022/08/07 07:29:44;;;;;;;;;;;24.80;55.20;;;;;;5041430;28;87973;-45
2022/08/07 07:32:10;;;;;;;;;;;24.80;55.30;;;;;;5041297;28;88022;-46
2022/08/07 07:34:38;;;;;;;;;;;24.90;55.20;;;;;;5041979;28;88408;-45
2022/08/07 07:37:04;;;;;;;;;;;24.80;55.30;;;;;;5041437;28;87941;-46
2022/08/07 07:39:30;;;;;;;;;;;24.90;55.30;;;;;;5048168;28;87298;-45
2022/08/07 07:41:56;;;;;;;;;;;24.90;55.80;;;;;;5045275;28;88051;-45
2022/08/07 07:44:23;;;;;;;;;;;24.90;55.20;;;;;;5045093;28;87213;-45
2022/08/07 07:46:49;;;;;;;;;;;24.90;55.50;;;;;;5043952;28;90548;-45
2022/08/07 07:49:17;;;;;;;;;;;24.90;55.20;;;;;;5045771;28;86728;-45
2022/08/07 07:51:43;;;;;;;;;;;24.90;55.20;;;;;;5045257;28;87674;-45
2022/08/07 07:54:10;;;;;;;;;;;24.90;55.00;;;;;;5045347;27;87606;-45
2022/08/07 07:56:37;;;;;;;;;;;24.90;55.10;;;;;;5043918;28;90082;-46
2022/08/07 07:59:03;;;;;;;;;;;24.90;55.10;;;;;;5044973;28;87018;-45
2022/08/07 08:01:30;;;;;;;;;;;24.90;55.00;;;;;;5047406;27;87780;-44
2022/08/07 08:03:57;;;;;;;;;;;24.90;55.00;;;;;;5045302;28;87084;-45
2022/08/07 08:06:24;;;;;;;;;;;24.90;55.20;;;;;;5044720;27;87297;-44
2022/08/07 08:08:49;;;;;;;;;;;24.90;55.20;;;;;;5044796;28;87980;-45
2022/08/07 08:11:15;;;;;;;;;;;24.90;55.10;;;;;;5044896;28;87269;-44
2022/08/07 08:13:41;;;;;;;;;;;24.90;55.00;;;;;;5045533;27;87377;-45
2022/08/07 08:16:08;;;;;;;;;;;24.90;55.10;;;;;;5044633;28;88076;-45
2022/08/07 08:18:34;;;;;;;;;;;25.00;55.20;;;;;;5044744;28;87112;-44
2022/08/07 08:21:00;;;;;;;;;;;25.00;55.10;;;;;;5044360;28;87957;-44
2022/08/07 08:29:00;;;;;;;;;;;25.00;55.10;;;;;;5042449;28;87057;-45
2022/08/07 08:31:28;;;;;;;;;;;25.00;55.10;;;;;;5044587;28;87010;-46
2022/08/07 08:33:54;;;;;;;;;;;25.00;55.00;;;;;;5044581;27;87269;-46
2022/08/07 08:36:22;;;;;;;;;;;25.00;55.00;;;;;;5044082;28;89079;-47
2022/08/07 08:38:48;;;;;;;;;;;25.00;55.10;;;;;;5044887;28;86357;-45
2022/08/07 08:41:14;;;;;;;;;;;25.00;55.00;;;;;;5044489;28;87011;-46
2022/08/07 08:43:42;;;;;;;;;;;25.10;55.00;;;;;;5047114;28;88407;-49
2022/08/07 08:46:14;;;;;;;;;;;25.00;55.60;;;;;;5043750;28;87786;-45
2022/08/07 08:48:45;;;;;;;;;;;25.10;54.90;;;;;;5043890;27;88123;-45
2022/08/07 08:51:27;;;;;;;;;;;25.10;55.00;;;;;;5044323;28;87018;-45
2022/08/07 08:53:53;;;;;;;;;;;25.10;55.00;;;;;;5044560;27;87559;-45
2022/08/07 08:56:51;;;;;;;;;;;25.10;55.00;;;;;;5043998;28;87979;-44
2022/08/07 08:59:21;;;;;;;;;;;25.10;55.00;;;;;;5008841;28;87142;-45
2022/08/07 09:02:05;;;;;;;;;;;25.10;55.10;;;;;;5044243;28;87140;-46
2022/08/07 09:04:36;;;;;;;;;;;25.10;55.00;;;;;;5044387;28;86891;-45
2022/08/07 09:07:13;;;;;;;;;;;25.10;55.00;;;;;;5047145;28;87072;-46
2022/08/07 09:09:38;;;;;;;;;;;25.10;55.10;;;;;;5043748;28;87178;-44
2022/08/07 09:12:11;;;;;;;;;;;25.10;55.00;;;;;;5042858;28;88069;-47
2022/08/07 09:14:47;;;;;;;;;;;25.10;54.90;;;;;;5043739;28;89610;-45
2022/08/07 09:17:28;;;;;;;;;;;25.10;55.00;;;;;;5043857;28;87211;-44
2022/08/07 09:19:55;;;;;;;;;;;25.20;54.90;;;;;;5044033;28;87383;-45
2022/08/07 09:22:41;;;;;;;;;;;25.20;54.90;;;;;;5043803;27;87720;-45
2022/08/07 09:25:09;;;;;;;;;;;25.20;54.90;;;;;;5042840;28;88187;-45
2022/08/07 09:27:35;;;;;;;;;;;25.20;54.90;;;;;;5043591;28;87108;-47
2022/08/07 09:30:05;;;;;;;;;;;25.30;54.90;;;;;;5046890;27;86670;-45
2022/08/07 09:32:49;;;;;;;;;;;25.30;54.90;;;;;;5043584;28;86809;-45
2022/08/07 09:35:34;;;;;;;;;;;25.30;54.90;;;;;;5043499;27;89110;-45
2022/08/07 09:38:05;;;;;;;;;;;25.30;54.90;;;;;;5041129;28;91869;-45
2022/08/07 09:40:39;;;;;;;;;;;25.30;54.90;;;;;;5043253;28;87092;-45
2022/08/07 09:43:23;;;;;;;;;;;25.40;55.10;;;;;;5043720;27;87436;-45
2022/08/07 09:45:52;;;;;;;;;;;25.30;54.90;;;;;;5043331;27;88115;-45
2022/08/07 09:48:17;;;;;;;;;;;25.40;54.90;;;;;;5043064;28;86880;-47
2022/08/07 09:50:55;;;;;;;;;;;25.30;54.90;;;;;;5043502;27;87367;-45
2022/08/07 09:53:23;;;;;;;;;;;25.40;54.90;;;;;;5046162;28;88104;-45
2022/08/07 09:55:51;;;;;;;;;;;25.40;54.90;;;;;;5043709;28;87246;-45
2022/08/07 09:58:23;;;;;;;;;;;25.40;54.90;;;;;;5043064;28;87955;-45
2022/08/07 10:00:48;;;;;;;;;;;25.40;54.90;;;;;;5041931;28;87093;-46
2022/08/07 10:03:32;;;;;;;;;;;25.40;54.90;;;;;;5042598;28;87801;-46
2022/08/07 10:06:07;;;;;;;;;;;25.40;54.90;;;;;;5042612;28;87345;-45
2022/08/07 10:08:38;;;;;;;;;;;25.50;55.00;;;;;;5043076;28;87214;-44
2022/08/07 10:11:33;;;;;;;;;;;25.50;54.90;;;;;;5043184;28;87415;-45
2022/08/07 10:14:07;;;;;;;;;;;25.50;55.00;;;;;;5032913;28;88187;-45
2022/08/07 10:16:51;;;;;;;;;;;25.50;55.00;;;;;;5046056;28;86931;-45
2022/08/07 10:19:52;;;;;;;;;;;25.50;54.90;;;;;;5042652;27;88718;-46
2022/08/07 10:22:30;;;;;;;;;;;25.50;54.90;;;;;;5000702;28;86297;-45
2022/08/07 10:25:01;;;;;;;;;;;25.60;54.90;;;;;;5037551;28;86879;-46
2022/08/07 10:27:45;;;;;;;;;;;25.60;54.90;;;;;;5042370;28;88228;-46
2022/08/07 10:30:16;;;;;;;;;;;25.60;54.80;;;;;;5042181;27;88023;-46
2022/08/07 10:32:43;;;;;;;;;;;25.60;54.90;;;;;;5042734;27;88365;-45
2022/08/07 10:35:20;;;;;;;;;;;25.60;54.90;;;;;;5042007;28;89507;-45
2022/08/07 10:38:04;;;;;;;;;;;25.60;54.90;;;;;;5042257;28;87216;-45
2022/08/07 10:40:32;;;;;;;;;;;25.60;54.90;;;;;;5045372;27;87227;-45
2022/08/07 10:42:58;;;;;;;;;;;25.60;54.90;;;;;;5042721;28;87096;-45
2022/08/07 10:45:30;;;;;;;;;;;25.70;54.90;;;;;;5042520;28;88753;-47
2022/08/07 10:47:57;;;;;;;;;;;25.70;54.80;;;;;;5042489;28;86474;-45
2022/08/07 10:50:23;;;;;;;;;;;25.70;54.70;;;;;;5042137;28;87081;-44
2022/08/07 10:52:48;;;;;;;;;;;25.70;54.60;;;;;;5042502;27;89099;-45
2022/08/07 10:55:17;;;;;;;;;;;25.70;54.70;;;;;;5041443;28;89129;-45
2022/08/07 10:58:01;;;;;;;;;;;25.70;54.70;;;;;;5042397;27;87100;-46
2022/08/07 11:00:30;;;;;;;;;;;25.70;54.70;;;;;;5044216;27;87336;-46
2022/08/07 11:03:01;;;;;;;;;;;25.70;54.70;;;;;;5041846;28;87211;-46
2022/08/07 11:05:29;;;;;;;;;;;25.70;54.60;;;;;;5042123;28;86946;-45
2022/08/07 11:07:57;;;;;;;;;;;25.70;54.70;;;;;;5041933;28;88053;-45
2022/08/07 11:10:30;;;;;;;;;;;25.70;54.60;;;;;;5042454;28;86990;-45
2022/08/07 11:13:02;;;;;;;;;;;25.80;54.70;;;;;;5043530;28;87580;-45
2022/08/07 11:15:30;;;;;;;;;;;25.80;54.70;;;;;;5045673;28;87989;-47
2022/08/07 11:17:56;;;;;;;;;;;25.80;54.60;;;;;;5045625;28;87075;-45
2022/08/07 11:20:36;;;;;;;;;;;25.80;54.60;;;;;;5045488;27;87972;-45
2022/08/07 11:23:08;;;;;;;;;;;25.80;54.60;;;;;;5048391;28;88359;-46
2022/08/07 11:25:35;;;;;;;;;;;25.80;54.60;;;;;;5045609;28;87468;-45
2022/08/07 11:28:04;;;;;;;;;;;25.80;54.60;;;;;;5045201;28;88004;-45
2022/08/07 11:30:34;;;;;;;;;;;25.80;54.50;;;;;;5045610;28;87154;-45
2022/08/07 11:33:10;;;;;;;;;;;25.80;54.50;;;;;;5045214;28;88094;-46
2022/08/07 11:35:55;;;;;;;;;;;25.80;54.50;;;;;;5045082;27;87560;-45
2022/08/07 11:38:48;;;;;;;;;;;25.80;54.50;;;;;;5045229;28;86318;-45
2022/08/07 11:41:17;;;;;;;;;;;25.80;54.50;;;;;;5045557;27;86954;-45
2022/08/07 11:43:50;;;;;;;;;;;25.80;54.50;;;;;;5044918;28;88212;-46
2022/08/07 11:46:33;;;;;;;;;;;25.80;54.40;;;;;;5047965;28;88141;-45
2022/08/07 11:49:19;;;;;;;;;;;25.80;54.50;;;;;;5044771;28;89321;-45
2022/08/07 11:51:45;;;;;;;;;;;25.80;54.30;;;;;;5044767;28;86703;-46
2022/08/07 11:54:25;;;;;;;;;;;25.90;54.50;;;;;;5045287;28;88141;-45
2022/08/07 11:56:51;;;;;;;;;;;25.90;54.40;;;;;;5045048;28;88069;-46
2022/08/07 11:59:31;;;;;;;;;;;25.90;54.50;;;;;;5044833;28;87121;-47
2022/08/07 12:02:20;;;;;;;;;;;25.90;54.40;;;;;;5044837;28;86995;-45
2022/08/07 12:04:48;;;;;;;;;;;26.00;54.30;;;;;;5038366;28;87243;-45
2022/08/07 12:07:24;;;;;;;;;;;26.00;54.40;;;;;;5045098;28;87107;-47
2022/08/07 12:09:57;;;;;;;;;;;26.00;54.50;;;;;;5047337;28;87437;-44
2022/08/07 12:12:25;;;;;;;;;;;26.00;54.40;;;;;;5044268;28;88094;-45
2022/08/07 12:14:56;;;;;;;;;;;26.00;54.40;;;;;;5044871;27;87637;-45
2022/08/07 12:17:23;;;;;;;;;;;26.00;54.40;;;;;;5044305;28;89847;-45
2022/08/07 12:19:52;;;;;;;;;;;26.00;54.30;;;;;;5044438;28;86987;-46
2022/08/07 12:22:36;;;;;;;;;;;26.00;54.30;;;;;;5044654;28;87726;-46
2022/08/07 12:27:58;;;;;;;;;;;26.00;54.20;;;;;;5044928;28;86919;-45
2022/08/07 12:30:26;;;;;;;;;;;26.10;54.20;;;;;;5045133;28;87443;-45
2022/08/07 12:32:52;;;;;;;;;;;26.10;54.20;;;;;;5047083;28;88657;-45
2022/08/07 12:35:18;;;;;;;;;;;26.10;54.20;;;;;;5044713;27;87471;-46
2022/08/07 12:37:46;;;;;;;;;;;26.10;54.20;;;;;;5043613;28;89119;-45
2022/08/07 12:40:12;;;;;;;;;;;26.20;54.20;;;;;;5044478;28;87115;-45
2022/08/07 12:42:39;;;;;;;;;;;26.20;54.10;;;;;;5044617;27;87919;-45
2022/08/07 12:45:30;;;;;;;;;;;26.20;54.10;;;;;;5044452;28;88079;-46
2022/08/07 12:48:34;;;;;;;;;;;26.30;54.20;;;;;;5042247;28;86843;-46
2022/08/07 12:51:00;;;;;;;;;;;26.30;54.20;;;;;;5001300;28;87514;-45
2022/08/07 12:53:44;;;;;;;;;;;26.30;54.20;;;;;;5001633;28;88240;-46
2022/08/07 12:56:30;;;;;;;;;;;26.30;54.20;;;;;;5029597;27;86319;-45
2022/08/07 12:58:57;;;;;;;;;;;26.30;54.20;;;;;;5043985;28;88124;-45
2022/08/07 13:01:25;;;;;;;;;;;26.30;54.20;;;;;;5043727;27;87185;-46
2022/08/07 13:03:54;;;;;;;;;;;26.30;54.30;;;;;;5043853;27;88653;-45
2022/08/07 13:06:19;;;;;;;;;;;26.30;54.30;;;;;;5043528;28;88311;-45
2022/08/07 13:09:01;;;;;;;;;;;26.30;54.30;;;;;;5044052;28;87393;-45
2022/08/07 13:11:40;;;;;;;;;;;26.30;54.30;;;;;;5044303;27;87332;-45
2022/08/07 13:14:09;;;;;;;;;;;26.30;54.30;;;;;;5043719;28;87631;-45
2022/08/07 13:16:39;;;;;;;;;;;26.30;54.30;;;;;;5046557;28;87067;-45
2022/08/07 13:19:08;;;;;;;;;;;26.30;54.20;;;;;;5043743;28;87594;-47
2022/08/07 13:21:40;;;;;;;;;;;26.40;54.20;;;;;;5044144;28;86407;-46
2022/08/07 13:24:08;;;;;;;;;;;26.40;54.20;;;;;;5044057;28;88136;-45
2022/08/07 13:26:38;;;;;;;;;;;26.40;54.00;;;;;;5043150;28;89353;-45
2022/08/07 13:29:11;;;;;;;;;;;26.50;54.10;;;;;;5042747;27;88020;-45
2022/08/07 13:32:03;;;;;;;;;;;26.50;54.60;;;;;;5043496;28;88369;-45
2022/08/07 13:34:32;;;;;;;;;;;26.50;53.80;;;;;;5038161;28;89973;-46
2022/08/07 13:37:07;;;;;;;;;;;26.60;53.80;;;;;;5042414;28;87033;-45
2022/08/07 13:39:42;;;;;;;;;;;26.60;53.80;;;;;;5045677;28;88986;-46
2022/08/07 13:42:13;;;;;;;;;;;26.60;53.70;;;;;;5043703;28;87008;-45
2022/08/07 13:44:39;;;;;;;;;;;26.60;53.60;;;;;;5043506;28;87011;-45
2022/08/07 13:47:05;;;;;;;;;;;26.70;53.60;;;;;;5043752;28;87130;-46
2022/08/07 13:49:32;;;;;;;;;;;26.70;53.50;;;;;;5043561;28;87090;-46
2022/08/07 13:52:01;;;;;;;;;;;26.70;53.60;;;;;;5043346;28;87499;-45
2022/08/07 13:54:29;;;;;;;;;;;26.70;53.30;;;;;;5041866;28;89069;-45
2022/08/07 13:56:56;;;;;;;;;;;26.80;53.20;;;;;;5042884;28;87169;-46
2022/08/07 13:59:24;;;;;;;;;;;26.80;53.30;;;;;;5043030;28;87310;-45
2022/08/07 14:02:06;;;;;;;;;;;26.80;53.30;;;;;;5044737;28;89856;-46
2022/08/07 14:04:34;;;;;;;;;;;26.80;53.20;;;;;;5042740;27;89182;-45
2022/08/07 14:07:03;;;;;;;;;;;26.80;53.20;;;;;;5042461;28;87981;-46
2022/08/07 14:09:32;;;;;;;;;;;26.90;53.10;;;;;;5043033;27;87547;-45
2022/08/07 14:12:01;;;;;;;;;;;26.90;53.40;;;;;;5043240;27;88996;-46
2022/08/07 14:14:29;;;;;;;;;;;26.90;53.00;;;;;;5042661;28;87822;-45
2022/08/07 14:16:58;;;;;;;;;;;26.90;53.10;;;;;;5043015;28;87131;-47
2022/08/07 14:19:46;;;;;;;;;;;27.00;53.00;;;;;;5041932;27;87788;-45
2022/08/07 14:22:15;;;;;;;;;;;27.00;52.90;;;;;;5042838;28;87130;-46
2022/08/07 14:24:44;;;;;;;;;;;27.00;52.80;;;;;;5045930;28;87077;-45
2022/08/07 14:27:11;;;;;;;;;;;27.00;52.80;;;;;;5042402;28;88020;-47
2022/08/07 14:29:40;;;;;;;;;;;27.10;52.80;;;;;;5042828;28;87109;-46
2022/08/07 14:32:06;;;;;;;;;;;27.10;52.60;;;;;;5042997;27;89132;-45
2022/08/07 14:34:33;;;;;;;;;;;27.10;52.70;;;;;;5042227;28;89172;-45
2022/08/07 14:36:59;;;;;;;;;;;27.10;52.80;;;;;;5043293;28;86356;-45